Pacific Star — WDG7068 — position and weather

sailwx.info

Track history (hours):
 
Tides and Currents Weather Stations Pressure Air Temp Water Temp Dewpoint Dewpoint Depression Visibility Wind Speed Wind Dir Waves Ship Positions

Pacific Star

Owner: Foss Maritime Company, Seattle, WA. More information available from US FCC via Universal Licensing System and Coast Guard Vessel Documentation Center.

Last reported at 2018-Jan-23 01:17 UTC. Time now 2018-Jan-23 05:57 UTC.
Position N 33°46' W 118°13'.

Length 30 m; draft 5.4 m.

Type: Tug. MMSI: 367563590.

Date/timePositionNaut miles runAvg speedWind from/ knotsBaromVisibWave heightAir tempDewpointWater temp
2018-Jan-23 01:17N 33°46' W 118°13'1 5.0
2018-Jan-23 00:59N 33°45' W 118°13'0 0.7
2018-Jan-23 00:21N 33°45' W 118°12'1 3.2
2018-Jan-23 00:00N 33°44' W 118°12'1 2.3
2018-Jan-22 23:30N 33°44' W 118°11'1 1.0
2018-Jan-22 22:59N 33°44' W 118°10'1 2.3
2018-Jan-22 22:30N 33°43' W 118°11'3 5.1
2018-Jan-22 22:00N 33°40' W 118°11'6 4.9
2018-Jan-22 20:44N 33°46' W 118°13'0 0.0
2018-Jan-22 20:27N 33°46' W 118°13'0 0.0
2018-Jan-22 20:00N 33°46' W 118°13'0 0.0
2018-Jan-22 19:25N 33°46' W 118°13'5 7.2
2018-Jan-22 18:39N 33°42' W 118°17'212.3
2018-Jan-22 18:30N 33°42' W 118°19'612.7
2018-Jan-22 18:00N 33°44' W 118°26'10 7.8
2018-Jan-22 16:44N 33°54' W 118°27'7 2.5
2018-Jan-22 14:05N 33°48' W 118°28'110.1
2018-Jan-22 14:00N 33°47' W 118°28'4 8.5
2018-Jan-22 13:30N 33°43' W 118°25'510.7
2018-Jan-22 13:00N 33°42' W 118°19'3 6.6
2018-Jan-22 12:30N 33°43' W 118°15'3 0.3
2018-Jan-22 02:19N 33°44' W 118°12'1 1.7
2018-Jan-22 01:53N 33°45' W 118°12'0 0.2
2018-Jan-22 01:18N 33°44' W 118°12'0 0.0
2018-Jan-22 00:53N 33°44' W 118°12'0 0.0
2018-Jan-22 00:23N 33°44' W 118°12'1 1.6
2018-Jan-21 23:57N 33°45' W 118°13'1 1.7
2018-Jan-21 23:30N 33°44' W 118°13'1 2.9
2018-Jan-21 23:00N 33°45' W 118°14'0 0.9
2018-Jan-21 22:30N 33°45' W 118°14'  
2018-Jan-19 08:24N 33°46' W 118°13'1 0.3
2018-Jan-19 06:19N 33°45' W 118°13'1 0.7
2018-Jan-19 04:25N 33°44' W 118°13'2 3.0
2018-Jan-19 03:36N 33°45' W 118°16'1 2.4
2018-Jan-19 03:22N 33°46' W 118°15'2 4.6
2018-Jan-19 02:55N 33°44' W 118°16'3 6.7
2018-Jan-19 02:28N 33°45' W 118°13'1 0.4
2018-Jan-19 00:02N 33°46' W 118°13'0 5.2
2018-Jan-18 23:58N 33°46' W 118°13'2 5.1
2018-Jan-18 23:30N 33°44' W 118°11'0 0.6
2018-Jan-18 23:00N 33°44' W 118°11'2 4.1
2018-Jan-18 22:30N 33°42' W 118°11'2 3.6
2018-Jan-18 22:00N 33°44' W 118°12'3 4.7
2018-Jan-18 21:28N 33°46' W 118°13'0 0.0
2018-Jan-18 21:00N 33°46' W 118°13'0 0.7
2018-Jan-18 20:30N 33°46' W 118°13'0 0.0
2018-Jan-18 19:47N 33°46' W 118°13'0 0.5
2018-Jan-18 19:28N 33°46' W 118°13'2 3.8
2018-Jan-18 19:01N 33°44' W 118°13'0 0.2
2018-Jan-18 18:30N 33°44' W 118°13'3 5.9
2018-Jan-18 17:58N 33°42' W 118°10'2 5.4
2018-Jan-18 17:31N 33°44' W 118°12'  
Track history (hours):
 
Tides and Currents Weather Stations Pressure Air Temp Water Temp Dewpoint Dewpoint Depression Visibility Wind Speed Wind Dir Waves Ship Positions

Pacific Star

Owner: Foss Maritime Company, Seattle, WA. More information available from US FCC via Universal Licensing System and Coast Guard Vessel Documentation Center.

Last reported at 2018-Jan-23 01:17 UTC. Time now 2018-Jan-23 05:57 UTC.
Position N 33°46' W 118°13'.

Length 30 m; draft 5.4 m.

Type: Tug. MMSI: 367563590.

Date/timePositionNaut miles runAvg speedWind from/ knotsBaromVisibWave heightAir tempDewpointWater temp
2018-Jan-23 01:17N 33°46' W 118°13'1 5.0
2018-Jan-23 00:59N 33°45' W 118°13'0 0.7
2018-Jan-23 00:21N 33°45' W 118°12'1 3.2
2018-Jan-23 00:00N 33°44' W 118°12'1 2.3
2018-Jan-22 23:30N 33°44' W 118°11'1 1.0
2018-Jan-22 22:59N 33°44' W 118°10'1 2.3
2018-Jan-22 22:30N 33°43' W 118°11'3 5.1
2018-Jan-22 22:00N 33°40' W 118°11'6 4.9
2018-Jan-22 20:44N 33°46' W 118°13'0 0.0
2018-Jan-22 20:27N 33°46' W 118°13'0 0.0
2018-Jan-22 20:00N 33°46' W 118°13'0 0.0
2018-Jan-22 19:25N 33°46' W 118°13'5 7.2
2018-Jan-22 18:39N 33°42' W 118°17'212.3
2018-Jan-22 18:30N 33°42' W 118°19'612.7
2018-Jan-22 18:00N 33°44' W 118°26'10 7.8
2018-Jan-22 16:44N 33°54' W 118°27'7 2.5
2018-Jan-22 14:05N 33°48' W 118°28'110.1
2018-Jan-22 14:00N 33°47' W 118°28'4 8.5
2018-Jan-22 13:30N 33°43' W 118°25'510.7
2018-Jan-22 13:00N 33°42' W 118°19'3 6.6
2018-Jan-22 12:30N 33°43' W 118°15'3 0.3
2018-Jan-22 02:19N 33°44' W 118°12'1 1.7
2018-Jan-22 01:53N 33°45' W 118°12'0 0.2
2018-Jan-22 01:18N 33°44' W 118°12'0 0.0
2018-Jan-22 00:53N 33°44' W 118°12'0 0.0
2018-Jan-22 00:23N 33°44' W 118°12'1 1.6
2018-Jan-21 23:57N 33°45' W 118°13'1 1.7
2018-Jan-21 23:30N 33°44' W 118°13'1 2.9
2018-Jan-21 23:00N 33°45' W 118°14'0 0.9
2018-Jan-21 22:30N 33°45' W 118°14'  
2018-Jan-19 08:24N 33°46' W 118°13'1 0.3
2018-Jan-19 06:19N 33°45' W 118°13'1 0.7
2018-Jan-19 04:25N 33°44' W 118°13'2 3.0
2018-Jan-19 03:36N 33°45' W 118°16'1 2.4
2018-Jan-19 03:22N 33°46' W 118°15'2 4.6
2018-Jan-19 02:55N 33°44' W 118°16'3 6.7
2018-Jan-19 02:28N 33°45' W 118°13'1 0.4
2018-Jan-19 00:02N 33°46' W 118°13'0 5.2
2018-Jan-18 23:58N 33°46' W 118°13'2 5.1
2018-Jan-18 23:30N 33°44' W 118°11'0 0.6
2018-Jan-18 23:00N 33°44' W 118°11'2 4.1
2018-Jan-18 22:30N 33°42' W 118°11'2 3.6
2018-Jan-18 22:00N 33°44' W 118°12'3 4.7
2018-Jan-18 21:28N 33°46' W 118°13'0 0.0
2018-Jan-18 21:00N 33°46' W 118°13'0 0.7
2018-Jan-18 20:30N 33°46' W 118°13'0 0.0
2018-Jan-18 19:47N 33°46' W 118°13'0 0.5
2018-Jan-18 19:28N 33°46' W 118°13'2 3.8
2018-Jan-18 19:01N 33°44' W 118°13'0 0.2
2018-Jan-18 18:30N 33°44' W 118°13'3 5.9
2018-Jan-18 17:58N 33°42' W 118°10'2 5.4
2018-Jan-18 17:31N 33°44' W 118°12'  

Dump ship's entire track history